createdAt,value
2022-11-22T00:00:42.171Z,99863.03
2022-11-22T00:03:09.427Z,99863.03
2022-11-22T00:05:36.532Z,99869.91
2022-11-22T00:08:04.445Z,99873.34
2022-11-22T00:10:31.493Z,99864.03
2022-11-22T00:12:58.826Z,99866.09
2022-11-22T00:15:25.771Z,99871.78
2022-11-22T00:17:52.704Z,99863.72
2022-11-22T00:20:19.586Z,99864.09
2022-11-22T00:22:47.011Z,99861.53
2022-11-22T00:25:14.727Z,99866.22
2022-11-22T00:27:42.114Z,99843.78
2022-11-22T00:30:10.141Z,99839.34
2022-11-22T00:32:37.354Z,99840.59
2022-11-22T00:35:05.065Z,99839.59
2022-11-22T00:37:32.702Z,99828.25
2022-11-22T00:39:59.612Z,99827.88
2022-11-22T00:42:27.075Z,99807.25
2022-11-22T00:44:54.060Z,99823.00
2022-11-22T00:47:21.018Z,99829.88
2022-11-22T00:49:47.926Z,99826.88
2022-11-22T00:52:14.981Z,99832.31
2022-11-22T00:54:41.912Z,99847.72
2022-11-22T00:57:09.056Z,99838.81
2022-11-22T00:59:36.181Z,99841.66
2022-11-22T01:02:03.251Z,99827.94
2022-11-22T01:04:30.101Z,99824.94
2022-11-22T01:06:57.413Z,99829.63
2022-11-22T01:09:24.684Z,99824.38
2022-11-22T01:11:51.993Z,99827.22
2022-11-22T01:14:19.443Z,99820.41
2022-11-22T01:16:46.839Z,99812.94
2022-11-22T01:19:14.390Z,99801.25
2022-11-22T01:21:41.410Z,99804.31
2022-11-22T01:24:09.551Z,99793.97
2022-11-22T01:26:36.879Z,99808.22
2022-11-22T01:29:04.780Z,99816.25
2022-11-22T01:31:31.775Z,99802.28
2022-11-22T01:33:59.696Z,99806.59
2022-11-22T01:36:27.810Z,99795.41
2022-11-22T01:38:55.143Z,99796.06
2022-11-22T01:41:22.234Z,99797.84
2022-11-22T01:43:49.705Z,99794.78
2022-11-22T01:46:38.888Z,99809.03
2022-11-22T01:49:23.588Z,99814.81
2022-11-22T01:51:54.279Z,99807.50
2022-11-22T01:54:25.860Z,99820.44
2022-11-22T01:56:57.101Z,99812.13
2022-11-22T01:59:29.097Z,99830.78
2022-11-22T02:01:57.055Z,99828.34
2022-11-22T02:04:28.587Z,99824.53
2022-11-22T02:07:09.153Z,99812.19
2022-11-22T02:09:39.084Z,99808.13
2022-11-22T02:12:08.617Z,99816.63
2022-11-22T02:14:38.712Z,99815.00
2022-11-22T02:17:05.775Z,99824.31
2022-11-22T02:19:49.177Z,99818.88
2022-11-22T02:22:48.066Z,99811.00
2022-11-22T02:25:24.444Z,99804.38
2022-11-22T02:27:51.558Z,99798.50
2022-11-22T02:30:19.341Z,99794.09
2022-11-22T02:32:46.338Z,99791.28
2022-11-22T02:35:25.141Z,99780.16
2022-11-22T02:37:58.493Z,99783.41
2022-11-22T02:40:28.389Z,99764.00
2022-11-22T02:43:22.691Z,99767.44
2022-11-22T02:45:49.704Z,99767.81
2022-11-22T02:48:19.379Z,99767.81
2022-11-22T02:50:47.476Z,99767.81
2022-11-22T02:53:14.758Z,99764.19
2022-11-22T02:55:41.787Z,99775.50
2022-11-22T02:58:08.878Z,99770.44
2022-11-22T03:00:38.169Z,99770.25
2022-11-22T03:03:05.858Z,99761.75
2022-11-22T03:05:33.494Z,99754.47
2022-11-22T03:08:00.337Z,99764.19
2022-11-22T03:10:27.417Z,99759.53
2022-11-22T03:12:54.564Z,99744.78
2022-11-22T03:15:21.440Z,99751.47
2022-11-22T03:17:48.457Z,99754.91
2022-11-22T03:20:15.951Z,99749.22
2022-11-22T03:22:42.797Z,99758.94
2022-11-22T03:25:09.981Z,99747.41
2022-11-22T03:27:36.923Z,99740.53
2022-11-22T03:30:04.375Z,99746.78
2022-11-22T03:32:31.219Z,99745.78
2022-11-22T03:34:58.474Z,99747.97
2022-11-22T03:37:25.338Z,99754.47
2022-11-22T03:39:52.331Z,99761.56
2022-11-22T03:42:21.977Z,99760.56
2022-11-22T03:44:49.651Z,99750.22
2022-11-22T03:47:16.663Z,99748.22
2022-11-22T03:49:44.060Z,99736.69
2022-11-22T03:52:12.090Z,99736.69
2022-11-22T03:54:39.187Z,99749.44
2022-11-22T03:57:06.423Z,99744.81
2022-11-22T03:59:33.416Z,99751.69
2022-11-22T04:02:00.348Z,99741.78
2022-11-22T04:04:27.579Z,99742.41
2022-11-22T04:06:54.429Z,99748.28
2022-11-22T04:09:21.484Z,99746.28
2022-11-22T04:11:48.525Z,99743.88
2022-11-22T04:14:33.839Z,99731.94
2022-11-22T04:17:01.369Z,99720.44
2022-11-22T04:19:28.553Z,99727.53
2022-11-22T04:21:55.852Z,99726.13
2022-11-22T04:24:41.409Z,99734.25
2022-11-22T04:27:08.394Z,99722.72
2022-11-22T04:29:35.256Z,99735.69
2022-11-22T04:32:21.209Z,99722.16
2022-11-22T04:34:48.494Z,99734.53
2022-11-22T04:37:15.414Z,99719.34
2022-11-22T04:39:42.527Z,99730.91
2022-11-22T04:42:27.968Z,99722.81
2022-11-22T04:44:56.445Z,99723.22
2022-11-22T04:47:45.032Z,99715.13
2022-11-22T04:50:34.620Z,99711.13
2022-11-22T04:53:01.504Z,99715.38
2022-11-22T04:55:28.339Z,99707.88
2022-11-22T04:57:59.701Z,99712.16
2022-11-22T05:00:29.242Z,99715.78
2022-11-22T05:02:57.904Z,99713.78
2022-11-22T05:05:25.882Z,99719.66
2022-11-22T05:07:52.944Z,99724.72
2022-11-22T05:10:26.031Z,99722.47
2022-11-22T05:12:53.857Z,99733.63
2022-11-22T05:15:21.043Z,99722.31
2022-11-22T05:17:48.484Z,99728.59
2022-11-22T05:20:15.289Z,99729.41
2022-11-22T05:23:01.094Z,99723.72
2022-11-22T05:25:27.937Z,99714.41
2022-11-22T05:27:55.151Z,99708.13
2022-11-22T05:30:22.597Z,99711.38
2022-11-22T05:32:49.454Z,99718.88
2022-11-22T05:35:16.598Z,99716.25
2022-11-22T05:37:43.555Z,99714.81
2022-11-22T05:40:11.546Z,99722.13
2022-11-22T05:42:38.350Z,99718.47
2022-11-22T05:45:06.139Z,99718.88
2022-11-22T05:47:36.591Z,99709.97
2022-11-22T05:50:04.808Z,99710.38
2022-11-22T05:52:32.175Z,99700.44
2022-11-22T05:54:59.114Z,99711.59
2022-11-22T05:57:26.517Z,99711.59
2022-11-22T05:59:54.741Z,99720.31
2022-11-22T06:02:21.692Z,99721.13
2022-11-22T06:04:48.806Z,99722.53
2022-11-22T06:07:15.926Z,99715.25
2022-11-22T06:09:42.875Z,99723.13
2022-11-22T06:12:09.718Z,99720.31
2022-11-22T06:14:43.017Z,99717.66
2022-11-22T06:17:10.647Z,99725.38
2022-11-22T06:19:37.499Z,99726.59
2022-11-22T06:22:04.548Z,99732.66
2022-11-22T06:24:31.409Z,99737.53
2022-11-22T06:26:58.616Z,99738.94
2022-11-22T06:29:25.787Z,99730.63
2022-11-22T06:31:53.498Z,99738.13
2022-11-22T06:34:20.343Z,99733.47
2022-11-22T06:36:47.624Z,99749.13
2022-11-22T06:39:14.535Z,99745.84
2022-11-22T06:41:41.597Z,99750.34
2022-11-22T06:44:10.228Z,99761.06
2022-11-22T06:46:37.755Z,99761.47
2022-11-22T06:49:04.847Z,99773.66
2022-11-22T06:51:33.407Z,99757.63
2022-11-22T06:54:00.251Z,99757.22
2022-11-22T06:56:30.676Z,99762.50
2022-11-22T06:59:01.821Z,99758.63
2022-11-22T07:01:30.410Z,99754.19
2022-11-22T07:04:03.796Z,99755.81
2022-11-22T07:06:34.956Z,99765.72
2022-11-22T07:09:08.376Z,99764.50
2022-11-22T07:11:36.827Z,99759.03
2022-11-22T07:14:08.870Z,99766.75
2022-11-22T07:16:38.745Z,99773.63
2022-11-22T07:19:06.570Z,99770.81
2022-11-22T07:21:34.698Z,99786.63
2022-11-22T07:24:01.688Z,99788.63
2022-11-22T07:26:28.722Z,99784.38
2022-11-22T07:28:55.991Z,99791.47
2022-11-22T07:31:23.237Z,99779.31
2022-11-22T07:33:50.423Z,99791.25
2022-11-22T07:36:20.787Z,99794.09
2022-11-22T07:38:49.009Z,99795.50
2022-11-22T07:41:17.996Z,99793.28
2022-11-22T07:43:46.733Z,99790.44
2022-11-22T07:46:29.679Z,99786.97
2022-11-22T07:48:57.908Z,99779.47
2022-11-22T07:51:24.998Z,99779.06
2022-11-22T07:53:52.185Z,99778.63
2022-11-22T07:56:19.414Z,99780.66
2022-11-22T07:58:46.721Z,99774.75
2022-11-22T08:01:18.870Z,99771.72
2022-11-22T08:03:46.842Z,99769.47
2022-11-22T08:06:14.731Z,99759.34
2022-11-22T08:08:42.670Z,99752.59
2022-11-22T08:11:11.027Z,99747.13
2022-11-22T08:13:37.981Z,99750.19
2022-11-22T08:16:14.298Z,99747.94
2022-11-22T08:18:45.533Z,99753.81
2022-11-22T08:21:14.542Z,99753.63
2022-11-22T08:23:42.768Z,99743.66
2022-11-22T08:26:13.897Z,99747.50
2022-11-22T08:28:42.535Z,99749.72
2022-11-22T08:31:14.024Z,99746.28
2022-11-22T08:33:41.793Z,99737.53
2022-11-22T08:36:09.061Z,99736.53
2022-11-22T08:38:36.615Z,99733.88
2022-11-22T08:41:05.637Z,99747.09
2022-11-22T08:43:33.238Z,99747.88
2022-11-22T08:46:02.168Z,99737.75
2022-11-22T08:48:32.696Z,99745.47
2022-11-22T08:51:03.393Z,99742.22
2022-11-22T08:53:33.548Z,99750.31
2022-11-22T08:56:02.516Z,99761.47
2022-11-22T08:58:31.339Z,99762.28
2022-11-22T09:01:06.963Z,99758.84
2022-11-22T09:03:35.920Z,99760.47
2022-11-22T09:09:36.381Z,99769.38
2022-11-22T09:11:47.988Z,99779.31
2022-11-22T09:14:15.028Z,99785.59
2022-11-22T09:16:42.127Z,99797.59
2022-11-22T09:19:09.749Z,99787.63
2022-11-22T09:21:36.996Z,99810.38
2022-11-22T09:24:04.250Z,99807.94
2022-11-22T09:26:31.320Z,99793.13
2022-11-22T09:28:58.339Z,99791.25
2022-11-22T09:31:25.763Z,99795.09
2022-11-22T09:33:52.713Z,99783.94
2022-11-22T09:36:22.948Z,99784.31
2022-11-22T09:38:51.620Z,99782.09
2022-11-22T09:41:56.069Z,99791.59
2022-11-22T09:44:46.655Z,99772.13
2022-11-22T09:47:49.627Z,99781.44
2022-11-22T09:50:38.259Z,99798.47
2022-11-22T09:53:35.142Z,99793.59
2022-11-22T09:56:09.698Z,99794.19
2022-11-22T09:59:06.700Z,99799.03
2022-11-22T10:01:45.889Z,99790.91
2022-11-22T10:04:25.167Z,99802.25
2022-11-22T10:07:18.994Z,99794.28
2022-11-22T10:10:12.047Z,99795.31
2022-11-22T10:12:47.968Z,99795.47
2022-11-22T10:15:49.633Z,99795.06
2022-11-22T10:18:51.435Z,99799.91
2022-11-22T10:21:20.039Z,99793.59
2022-11-22T10:23:48.327Z,99786.47
2022-11-22T10:26:30.038Z,99795.38
2022-11-22T10:29:13.065Z,99785.03
2022-11-22T10:32:20.623Z,99803.53
2022-11-22T10:35:32.890Z,99799.00
2022-11-22T10:38:41.437Z,99796.75
2022-11-22T10:41:29.542Z,99794.47
2022-11-22T10:44:23.685Z,99790.97
2022-11-22T10:47:03.765Z,99802.53
2022-11-22T10:49:52.337Z,99800.28
2022-11-22T10:52:49.610Z,99796.34
2022-11-22T10:55:22.689Z,99797.34
2022-11-22T10:58:28.201Z,99768.09
2022-11-22T11:01:21.869Z,99783.47
2022-11-22T11:03:54.939Z,99771.44
2022-11-22T11:10:10.341Z,99804.22
2022-11-22T11:12:43.454Z,99801.38
2022-11-22T11:15:21.941Z,99799.91
2022-11-22T11:17:59.056Z,99787.69
2022-11-22T11:20:31.029Z,99789.84
2022-11-22T11:23:14.277Z,99786.09
2022-11-22T11:25:45.617Z,99789.69
2022-11-22T11:28:22.042Z,99783.53
2022-11-22T11:31:21.848Z,99770.66
2022-11-22T11:33:49.130Z,99773.31
2022-11-22T11:36:23.838Z,99769.56
2022-11-22T11:38:57.561Z,99776.03
2022-11-22T11:41:40.279Z,99759.63
2022-11-22T11:44:32.451Z,99762.00
2022-11-22T11:47:00.025Z,99766.97
2022-11-22T11:49:33.679Z,99761.09
2022-11-22T11:52:09.790Z,99765.91
2022-11-22T11:54:46.962Z,99760.50
2022-11-22T11:57:28.673Z,99769.84
2022-11-22T11:59:59.534Z,99772.16
2022-11-22T12:02:41.475Z,99774.72
2022-11-22T12:05:14.744Z,99771.84
2022-11-22T12:07:45.275Z,99769.41
2022-11-22T12:10:50.281Z,99772.41
2022-11-22T12:13:37.171Z,99776.31
2022-11-22T12:16:35.311Z,99777.13
2022-11-22T12:19:29.692Z,99778.53
2022-11-22T12:25:34.273Z,99770.81
2022-11-22T12:28:19.431Z,99768.97
2022-11-22T12:34:07.129Z,99760.56
2022-11-22T12:37:20.794Z,99752.16
2022-11-22T12:39:51.985Z,99752.75
2022-11-22T12:42:29.372Z,99747.22
2022-11-22T12:45:12.115Z,99731.66
2022-11-22T12:47:42.117Z,99721.88
2022-11-22T12:48:22.534Z,99766.09
2022-11-22T12:50:44.734Z,99725.34
2022-11-22T12:53:30.287Z,99750.34
2022-11-22T12:56:28.366Z,99762.56
2022-11-22T12:59:10.435Z,99762.44
2022-11-22T13:01:37.590Z,99752.88
2022-11-22T13:04:11.302Z,99758.75
2022-11-22T13:06:57.494Z,99750.44
2022-11-22T13:09:38.766Z,99745.28
2022-11-22T13:12:15.641Z,99734.53
2022-11-22T13:14:48.252Z,99742.19
2022-11-22T13:17:17.665Z,99729.16
2022-11-22T13:19:55.307Z,99731.56
2022-11-22T13:23:00.552Z,99742.19
2022-11-22T13:26:10.353Z,99732.16
2022-11-22T13:28:42.515Z,99725.34
2022-11-22T13:31:19.014Z,99727.53
2022-11-22T13:33:56.922Z,99735.72
2022-11-22T13:36:30.055Z,99735.72
2022-11-22T13:39:01.041Z,99729.47
2022-11-22T13:41:29.849Z,99729.00
2022-11-22T13:44:39.382Z,99741.72
2022-11-22T13:47:36.790Z,99754.16
2022-11-22T13:50:41.895Z,99746.44
2022-11-22T13:53:30.894Z,99749.91
2022-11-22T13:56:21.823Z,99748.06
2022-11-22T13:58:51.681Z,99746.22
2022-11-22T14:01:34.602Z,99737.69
2022-11-22T14:04:16.992Z,99739.16
2022-11-22T14:06:50.038Z,99727.16
2022-11-22T14:09:32.137Z,99728.44
2022-11-22T14:12:40.255Z,99735.81
2022-11-22T14:15:29.585Z,99734.41
2022-11-22T14:18:21.669Z,99741.78
2022-11-22T14:21:04.372Z,99727.13
2022-11-22T14:23:57.251Z,99726.09
2022-11-22T14:27:04.942Z,99739.59
2022-11-22T14:30:09.291Z,99747.75
2022-11-22T14:33:05.912Z,99745.56
2022-11-22T14:35:39.202Z,99753.50
2022-11-22T14:38:33.196Z,99747.41
2022-11-22T14:41:28.841Z,99746.94
2022-11-22T14:44:07.357Z,99747.75
2022-11-22T14:46:53.179Z,99750.84
2022-11-22T14:49:42.779Z,99744.16
2022-11-22T14:52:25.522Z,99751.31
2022-11-22T14:55:05.994Z,99745.41
2022-11-22T14:57:37.069Z,99748.34
2022-11-22T15:00:25.055Z,99750.81
2022-11-22T15:03:14.980Z,99756.47
2022-11-22T15:09:14.161Z,99754.03
2022-11-22T15:09:52.192Z,99752.47
2022-11-22T15:12:33.589Z,99757.78
2022-11-22T15:59:46.907Z,99787.50
2022-11-22T16:02:31.779Z,99801.31
2022-11-22T16:06:06.634Z,99792.16
2022-11-22T16:07:51.999Z,99786.06
2022-11-22T16:10:50.113Z,99803.56
2022-11-22T16:13:21.208Z,99795.00
2022-11-22T16:16:10.588Z,99794.00
2022-11-22T16:18:42.954Z,99795.63
2022-11-22T16:21:15.746Z,99785.03
2022-11-22T16:23:47.568Z,99782.59
2022-11-22T16:26:19.820Z,99781.75
2022-11-22T16:28:51.108Z,99788.09
2022-11-22T16:31:32.197Z,99786.47
2022-11-22T16:33:59.858Z,99790.16
2022-11-22T16:36:30.243Z,99779.56
2022-11-22T16:38:57.378Z,99793.81
2022-11-22T16:41:29.816Z,99788.31
2022-11-22T16:44:03.051Z,99777.94
2022-11-22T16:46:30.941Z,99782.41
2022-11-22T16:48:58.165Z,99791.63
2022-11-22T16:51:28.577Z,99795.88
2022-11-22T16:54:00.362Z,99786.19
2022-11-22T16:56:29.864Z,99808.31
2022-11-22T16:58:58.098Z,99813.84
2022-11-22T17:01:32.723Z,99821.78
2022-11-22T17:04:02.851Z,99816.94
2022-11-22T17:06:31.250Z,99827.53
2022-11-22T17:09:00.377Z,99823.84
2022-11-22T17:11:31.246Z,99839.75
2022-11-22T17:13:59.839Z,99833.84
2022-11-22T17:16:27.084Z,99825.69
2022-11-22T17:18:54.241Z,99828.47
2022-11-22T17:21:37.726Z,99822.75
2022-11-22T17:24:23.781Z,99822.38
2022-11-22T17:26:51.348Z,99827.31
2022-11-22T17:29:48.854Z,99818.56
2022-11-22T17:32:06.212Z,99820.75
2022-11-22T17:34:33.584Z,99830.09
2022-11-22T17:37:00.960Z,99819.38
2022-11-22T17:39:28.403Z,99825.47
2022-11-22T17:41:55.713Z,99825.47
2022-11-22T17:44:22.753Z,99843.13
2022-11-22T17:46:50.583Z,99843.56
2022-11-22T17:49:17.570Z,99823.03
2022-11-22T17:51:46.555Z,99845.78
2022-11-22T17:54:13.673Z,99849.41
2022-11-22T17:56:40.739Z,99847.97
2022-11-22T17:59:07.733Z,99850.25
2022-11-22T18:01:36.972Z,99849.22
2022-11-22T18:04:04.088Z,99861.66
2022-11-22T18:06:32.182Z,99857.41
2022-11-22T18:09:00.383Z,99857.63
2022-11-22T18:11:27.572Z,99866.75
2022-11-22T18:13:54.636Z,99868.19
2022-11-22T18:16:28.006Z,99864.72
2022-11-22T18:18:57.735Z,99876.94
2022-11-22T18:21:29.267Z,99878.16
2022-11-22T18:24:01.366Z,99884.25
2022-11-22T18:26:44.398Z,99874.53
2022-11-22T18:32:01.853Z,99888.16
2022-11-22T18:34:30.089Z,99874.53
2022-11-22T18:37:02.085Z,99868.44
2022-11-22T18:39:39.039Z,99883.06
2022-11-22T18:42:15.263Z,99883.69
2022-11-22T18:44:43.059Z,99883.09
2022-11-22T18:47:10.195Z,99882.44
2022-11-22T18:49:37.791Z,99878.81
2022-11-22T18:52:05.426Z,99879.41
2022-11-22T18:54:32.909Z,99887.53
2022-11-22T18:57:00.257Z,99877.56
2022-11-22T18:59:27.979Z,99881.81
2022-11-22T19:01:55.518Z,99877.97
2022-11-22T19:04:22.611Z,99881.44
2022-11-22T19:06:49.630Z,99862.09
2022-11-22T19:09:16.706Z,99874.91
2022-11-22T19:11:43.633Z,99888.75
2022-11-22T19:14:11.105Z,99875.94
2022-11-22T19:16:38.127Z,99887.72
2022-11-22T19:19:05.231Z,99887.56
2022-11-22T19:21:32.251Z,99884.94
2022-11-22T19:23:59.245Z,99884.34
2022-11-22T19:26:28.059Z,99894.50
2022-11-22T19:28:57.618Z,99903.84
2022-11-22T19:31:28.745Z,99905.09
2022-11-22T19:33:55.844Z,99902.72
2022-11-22T19:36:32.214Z,99910.22
2022-11-22T19:39:00.957Z,99909.19
2022-11-22T19:41:28.893Z,99916.13
2022-11-22T19:43:56.648Z,99916.13
2022-11-22T19:46:25.117Z,99921.41
2022-11-22T19:48:57.568Z,99923.03
2022-11-22T19:51:26.169Z,99915.53
2022-11-22T19:54:00.667Z,99912.44
2022-11-22T19:56:31.007Z,99906.13
2022-11-22T19:58:59.887Z,99909.56
2022-11-22T20:01:31.159Z,99906.34
2022-11-22T20:04:05.350Z,99910.00
2022-11-22T20:06:34.338Z,99911.41
2022-11-22T20:09:11.591Z,99907.16
2022-11-22T20:11:40.950Z,99908.09
2022-11-22T20:14:09.517Z,99913.00
2022-11-22T20:16:41.443Z,99906.09
2022-11-22T20:19:10.498Z,99908.06
2022-11-22T20:21:39.865Z,99912.34
2022-11-22T20:24:09.921Z,99915.00
2022-11-22T20:26:37.169Z,99918.22
2022-11-22T20:29:08.120Z,99918.81
2022-11-22T20:31:37.878Z,99925.97
2022-11-22T20:34:05.144Z,99928.41
2022-11-22T20:36:34.763Z,99932.22
2022-11-22T20:39:07.021Z,99933.69
2022-11-22T20:41:37.057Z,99928.19
2022-11-22T20:44:04.396Z,99915.59
2022-11-22T20:46:31.505Z,99919.19
2022-11-22T20:48:58.634Z,99910.00
2022-11-22T20:51:27.975Z,99914.72
2022-11-22T20:53:57.493Z,99898.44
2022-11-22T20:56:25.693Z,99917.34
2022-11-22T20:58:52.681Z,99910.06
2022-11-22T21:01:24.101Z,99917.56
2022-11-22T21:03:52.812Z,99914.34
2022-11-22T21:06:21.999Z,99912.72
2022-11-22T21:08:49.332Z,99904.41
2022-11-22T21:11:19.851Z,99906.59
2022-11-22T21:13:48.008Z,99904.75
2022-11-22T21:16:24.908Z,99908.22
2022-11-22T21:19:01.729Z,99900.88
2022-11-22T21:21:31.303Z,99910.44
2022-11-22T21:24:01.090Z,99911.91
2022-11-22T21:26:29.140Z,99929.19
2022-11-22T21:28:57.358Z,99924.13
2022-11-22T21:31:25.023Z,99923.31
2022-11-22T21:33:52.836Z,99922.28
2022-11-22T21:36:20.826Z,99919.47
2022-11-22T21:38:47.790Z,99924.56
2022-11-22T21:44:09.599Z,99927.44
2022-11-22T21:46:37.087Z,99905.47
2022-11-22T21:49:04.082Z,99918.69
2022-11-22T21:51:31.800Z,99911.91
2022-11-22T21:54:01.092Z,99911.03
2022-11-22T21:56:28.312Z,99906.16
2022-11-22T21:58:56.064Z,99908.22
2022-11-22T22:01:24.636Z,99915.81
2022-11-22T22:03:52.717Z,99916.69
2022-11-22T22:06:19.789Z,99915.69
2022-11-22T22:08:47.051Z,99915.09
2022-11-22T22:11:14.517Z,99927.91
2022-11-22T22:13:41.502Z,99925.47
2022-11-22T22:16:12.731Z,99923.03
2022-11-22T22:18:39.879Z,99927.16
2022-11-22T22:21:09.551Z,99944.06
2022-11-22T22:23:39.609Z,99941.25
2022-11-22T22:26:09.966Z,99940.72
2022-11-22T22:28:38.199Z,99926.91
2022-11-22T22:31:23.949Z,99935.50
2022-11-22T22:33:55.128Z,99939.00
2022-11-22T22:36:26.132Z,99952.69
2022-11-22T22:38:54.879Z,99950.28
2022-11-22T22:41:22.018Z,99956.63
2022-11-22T22:43:49.713Z,99950.72
2022-11-22T22:46:22.638Z,99948.50
2022-11-22T22:48:51.004Z,99949.16
2022-11-22T22:51:32.684Z,99934.94
2022-11-22T22:54:01.281Z,99946.34
2022-11-22T22:56:31.373Z,99948.81
2022-11-22T22:59:01.394Z,99943.16
2022-11-22T23:01:30.828Z,99934.22
2022-11-22T23:04:00.514Z,99934.06
2022-11-22T23:06:34.358Z,99935.72
2022-11-22T23:09:02.687Z,99941.66
2022-11-22T23:11:50.533Z,99940.44
2022-11-22T23:14:25.210Z,99939.66
2022-11-22T23:16:57.312Z,99939.06
2022-11-22T23:19:26.002Z,99927.72
2022-11-22T23:21:53.506Z,99941.75
2022-11-22T23:24:20.931Z,99939.53
2022-11-22T23:26:47.843Z,99934.44
2022-11-22T23:29:15.245Z,99948.72
2022-11-22T23:31:42.073Z,99939.16
2022-11-22T23:34:11.612Z,99945.06
2022-11-22T23:36:41.117Z,99941.63
2022-11-22T23:39:09.215Z,99950.97
2022-11-22T23:41:36.177Z,99937.97
2022-11-22T23:44:03.638Z,99941.84
2022-11-22T23:46:30.643Z,99947.13
2022-11-22T23:49:00.043Z,99941.25
2022-11-22T23:51:29.719Z,99941.44
2022-11-22T23:54:02.291Z,99936.59
2022-11-22T23:56:31.384Z,99932.53
2022-11-22T23:58:59.784Z,99926.44
